Terminal Aerodrome Forecast
Issued by NWS

Home | Current Version | Previous Version | Text Only | Print | Product List | Glossary On
Versions: 1 2 3 4 5 6 7 8 9 10 11 12 13 14 15 16 17 18 19 20 21 22 23 24 25 26 27
298
FTUS44 KFWD 282337
TAFAFW
TAF
KAFW 282337Z 2900/2924 15014KT P6SM SCT050 BKN300
     FM290700 16019KT P6SM BKN015
     FM291600 17015G25KT P6SM VCSH BKN020
     FM291800 19017G27KT P6SM VCTS OVC035CB
      TEMPO 2918/2922 32015G25KT 3SM TSRA OVC020CB
     FM292200 32018KT 6SM -RA VCTS BKN025CB=

USA.gov is the U.S. government's official web portal to all federal, state and local government web resources and services.